PAAQ METAR and TAF weather

Enter ICAO airport designator
Station Type Date Time Source
PAAQ METAR 2019/12/10 02:53 UTC NOAA

PAAQ 100253Z 12012KT 5SM RA BR OVC039 04/03 A2932 RMK AO2 PK WND 13029/0204 SLP931 P0005 60012 T00390028 53012


Station Type Date Time Source
PAAQ Decoded METAR 2019/12/10 02:53 UTC NOAA

PALMER MUNICIPAL AIRPORT, AK, United States (PAAQ) 61-36N 149-06W
Dec 09, 2019 - 09:53 PM EST / 2019.12.10 0253 UTC
Wind: from the ESE (120 degrees) at 14 MPH (12 KT):0
Visibility: 5 mile(s):0
Sky conditions: overcast
Weather: rain; mist
Precipitation last hour: 0.05 inches
Temperature: 39.0 F (3.9 C)
Dew Point: 37.0 F (2.8 C)
Relative Humidity: 92%
Pressure (altimeter): 29.32 in. Hg (992 hPa)
Pressure tendency: 0.04 inches (1.2 hPa) higher than three hours ago
ob: PAAQ 100253Z 12012KT 5SM RA BR OVC039 04/03 A2932 RMK AO2 PK WND 13029/0204 SLP931 P0005 60012 T00390028 53012
cycle: 3

Station Type Date Time Source
PAAQ TAF 2019/12/09 18:42 UTC NOAA

TAF PAAQ 091739Z 0918/1018 35015G28KT P6SM -RA BKN060 BKN100
FM100200 12025G40KT P6SM BKN060
FM100900 07010KT 6SM -RA BR OVC040

Example: see airport list